Flight Track Log - Related Links

Times and Time Zones

All times are in EDT time to prevent confusion due to time zone crossing. See the CTL337 flight status page for this flight to view local times or setup timezone preferences in your user account.

Time Position Orientation Groundspeed Altitude Reporting Facility
EDT Latitude Longitude Course Direction KTS MPH feet Rate Location/Type
Sat 03:55:00 AM 40.0756 -83.0886 245° Southwest 94 108 1,500  Level Indianapolis Center
Sat 03:56:07 AM 40.0608 -83.1297 245° Southwest 113 130 2,900 1,200 Climbing Indianapolis Center
Sat 03:57:05 AM 40.0397 -83.1661 233° Southwest 118 136 4,000 1,210 Climbing Indianapolis Center
Sat 03:58:06 AM 40.0211 -83.2014 235° Southwest 119 137 5,300 1,016 Climbing Indianapolis Center
Sat 03:59:09 AM 40.0019 -83.2378 235° Southwest 118 136 6,100 393 Climbing Indianapolis Center
Sat 04:00:08 AM 39.9792 -83.2806 235° Southwest 163 188 6,100  Level Indianapolis Center
Sat 04:01:07 AM 39.9486 -83.3333 233° Southwest 180 207 6,100 -50 Level Indianapolis Center
Sat 04:02:07 AM 39.9183 -83.3942 237° Southwest 190 219 6,000 -50 Descending Indianapolis Center
Sat 04:03:07 AM 39.8897 -83.4525 237° Southwest 192 221 6,000 50 Level Indianapolis Center
Sat 04:04:06 AM 39.8592 -83.5197 239° Southwest 191 220 6,100 50 Climbing Indianapolis Center
Sat 04:05:06 AM 39.8311 -83.5758 237° Southwest 189 217 6,100  Level Indianapolis Center
Sat 04:06:06 AM 39.8031 -83.6331 237° Southwest 188 216 6,100  Level Indianapolis Center
Sat 04:07:06 AM 39.7744 -83.6908 237° Southwest 188 216 6,100 -65 Level Indianapolis Center
Sat 04:07:39 AM 39.7606 -83.7211 239° Southwest 190 219 6,000 -67 Descending Indianapolis Center
Sat 04:08:36 AM 39.7314 -83.7789 237° Southwest 191 220 6,000 68 Level Indianapolis Center
Sat 04:09:07 AM 39.7231 -83.7981 241° Southwest 189 217 6,100 98 Climbing Indianapolis Center
Sat 04:09:37 AM 39.7047 -83.8342 237° Southwest 186 214 6,100  Level Indianapolis Center
Sat 04:10:07 AM 39.6956 -83.8556 241° Southwest 188 216 6,100  Level Indianapolis Center
Sat 04:10:37 AM 39.6778 -83.8919 238° Southwest 186 214 6,100  Level Indianapolis Center
Sat 04:11:07 AM 39.6672 -83.9125 236° Southwest 187 215 6,100  Level Indianapolis Center
Sat 04:11:40 AM 39.6486 -83.9497 237° Southwest 193 222 6,100  Level Indianapolis Center
Sat 04:13:07 AM 39.6108 -84.0289 238° Southwest 188 216 6,100 -163 Level Indianapolis Center
Sat 04:14:07 AM 39.5817 -84.0875 237° Southwest 190 219 5,700 -550 Descending Indianapolis Center
Sat 04:15:07 AM 39.5494 -84.1514 237° Southwest 201 231 5,000 -550 Descending Indianapolis Center
Sat 04:16:07 AM 39.5150 -84.2219 238° Southwest 205 236 4,600 -400 Descending Indianapolis Center
Sat 04:18:00 AM 39.4607 -84.3042 234° Southwest  Level FlightAware Approximate
Sat 04:25:00 AM 39.3500 -84.5167 229° Southwest  Level FlightAware Approximate
Sat 04:26:00 AM 39.3638 -84.5219 229° Southwest  Level Estimated

Login

Don't have an account? Register now (free) for customized features, flight alerts, and more!